Terminal Aerodrome Forecast
Issued by NWS

Home | Current Version | Previous Version | Text Only | Print | Product List | Glossary Off
Versions: 1 2 3 4 5 6 7 8 9 10 11 12 13 14 15 16 17 18 19

000
FTUS43 KMPX 250544
TAFRWF
TAF
KRWF 250544Z 2506/2606 02008KT 6SM -SNDZ BKN025 OVC070
     FM250700 03010KT 2SM -SN OVC020
     FM250900 03009KT P6SM BKN025 OVC070
     FM251500 03007KT P6SM SCT025
     FM252100 20004KT P6SM FEW025 SCT100=

USA.gov is the U.S. government's official web portal to all federal, state and local government web resources and services.